Time;durP1;ratioP1;P1;durP2;ratioP2;P2;SDS_P1;SDS_P2;PMS_P1;PMS_P2;Temp;Humidity;BMP_temperature;BMP_pressure;BME280_temperature;BME280_humidity;BME280_pressure;Samples;Min_cycle;Max_cycle;Signal;HPM_P1;HPM_P2
2022/11/21 05:00:39;;;;;;;1.23;1.05;;;0.20;99.90;;;;;;5802302;23;20232;-68
2022/11/21 05:03:06;;;;;;;3.50;3.15;;;0.20;99.90;;;;;;4930435;29;20232;-67
2022/11/21 05:05:33;;;;;;;5.38;2.72;;;0.20;99.90;;;;;;4933366;29;20217;-69
2022/11/21 05:08:00;;;;;;;1.15;1.00;;;0.10;99.90;;;;;;4934300;29;20215;-68
2022/11/21 05:10:27;;;;;;;5.57;3.58;;;0.10;99.90;;;;;;4931831;29;20217;-68
2022/11/21 05:15:43;;;;;;;1.58;1.48;;;0.00;99.90;;;;;;4917868;29;20682;-69
2022/11/21 05:18:10;;;;;;;8.82;3.85;;;0.00;99.90;;;;;;4933441;29;20217;-68
2022/11/21 05:20:37;;;;;;;3.58;2.97;;;-0.10;99.90;;;;;;4932350;29;20233;-68
2022/11/21 05:23:04;;;;;;;5.38;4.53;;;0.00;99.90;;;;;;4930763;29;20246;-68
2022/11/21 05:25:30;;;;;;;5.65;4.57;;;0.00;99.90;;;;;;4935688;29;20228;-67
2022/11/21 05:27:57;;;;;;;21.58;2.35;;;-0.10;99.90;;;;;;4925008;29;20210;-67
2022/11/21 05:30:24;;;;;;;3.47;3.25;;;-0.10;99.90;;;;;;4934443;29;20210;-69
2022/11/21 05:32:52;;;;;;;1.45;1.45;;;-0.10;99.90;;;;;;4934318;29;20215;-67
2022/11/21 05:35:19;;;;;;;2.72;2.45;;;-0.10;99.90;;;;;;4928421;29;20202;-67
2022/11/21 05:37:45;;;;;;;3.50;2.97;;;-0.10;99.90;;;;;;4935641;29;20638;-70
2022/11/21 05:40:12;;;;;;;2.42;2.30;;;-0.10;99.90;;;;;;4936075;29;20222;-69
2022/11/21 05:45:23;;;;;;;5.00;4.50;;;-0.10;99.90;;;;;;4934757;29;20227;-68
2022/11/21 05:47:51;;;;;;;3.72;3.13;;;-0.10;99.90;;;;;;4923185;29;20210;-69
2022/11/21 05:50:18;;;;;;;3.15;2.83;;;-0.10;99.90;;;;;;4916832;29;20697;-69
2022/11/21 05:52:45;;;;;;;4.30;2.40;;;-0.10;99.90;;;;;;4927596;29;20564;-68
2022/11/21 05:55:12;;;;;;;3.50;3.40;;;-0.10;99.90;;;;;;4935287;29;20216;-69
2022/11/21 05:57:38;;;;;;;3.13;3.03;;;-0.10;99.90;;;;;;4916638;29;20204;-69
2022/11/21 06:00:06;;;;;;;2.97;2.80;;;-0.20;99.90;;;;;;4916881;29;20217;-68
2022/11/21 06:05:18;;;;;;;3.63;2.75;;;-0.20;99.90;;;;;;4917199;29;20208;-69
2022/11/21 06:07:45;;;;;;;1.65;1.52;;;-0.20;99.90;;;;;;4929265;29;20217;-69
2022/11/21 06:10:12;;;;;;;4.78;4.35;;;-0.20;99.90;;;;;;4919766;29;20209;-68
2022/11/21 06:12:38;;;;;;;3.78;3.33;;;-0.30;99.90;;;;;;4915757;29;20594;-69
2022/11/21 06:15:06;;;;;;;1.55;1.45;;;-0.30;99.90;;;;;;4916655;29;20320;-69
2022/11/21 06:17:32;;;;;;;2.05;1.13;;;-0.30;99.90;;;;;;4916551;29;20570;-68
2022/11/21 06:19:59;;;;;;;2.38;2.22;;;-0.30;99.90;;;;;;4916795;29;20214;-70
2022/11/21 06:22:27;;;;;;;1.13;1.10;;;-0.30;99.90;;;;;;4931892;29;20232;-68
2022/11/21 06:24:54;;;;;;;2.72;2.47;;;-0.40;99.90;;;;;;4916294;29;20217;-69
2022/11/21 06:27:20;;;;;;;1.80;1.70;;;-0.40;99.90;;;;;;4916402;29;20214;-69
2022/11/21 06:29:47;;;;;;;4.00;3.63;;;-0.40;99.90;;;;;;4916640;29;20328;-69
2022/11/21 06:32:14;;;;;;;5.30;2.63;;;-0.40;99.90;;;;;;4916408;29;20244;-67
2022/11/21 06:34:40;;;;;;;10.38;3.33;;;-0.40;99.90;;;;;;4927827;29;20217;-69
2022/11/21 06:37:07;;;;;;;7.60;2.17;;;-0.40;99.90;;;;;;4937893;29;20212;-69
2022/11/21 06:39:35;;;;;;;2.15;2.05;;;-0.30;99.90;;;;;;4940239;29;20689;-68
2022/11/21 06:42:02;;;;;;;5.85;3.22;;;-0.30;99.90;;;;;;4941836;29;20248;-67
2022/11/21 06:44:29;;;;;;;1.23;1.23;;;-0.30;99.90;;;;;;4940380;29;20213;-68
2022/11/21 06:47:01;;;;;;;5.13;3.00;;;-0.30;99.90;;;;;;4940268;29;20219;-69
2022/11/21 06:49:28;;;;;;;3.15;2.95;;;-0.30;99.90;;;;;;4932341;29;20219;-68
2022/11/21 06:51:55;;;;;;;2.88;2.65;;;-0.40;99.90;;;;;;4925635;29;20226;-69
2022/11/21 06:54:21;;;;;;;5.28;2.38;;;-0.50;99.90;;;;;;4920275;29;20235;-69
2022/11/21 06:56:52;;;;;;;2.70;1.63;;;-0.50;99.90;;;;;;4920916;29;20208;-69
2022/11/21 06:59:19;;;;;;;1.98;1.60;;;-0.50;99.90;;;;;;4920590;29;20239;-69
2022/11/21 07:01:46;;;;;;;1.42;1.33;;;-0.50;99.90;;;;;;4922948;29;20251;-68
2022/11/21 07:04:12;;;;;;;4.35;3.33;;;-0.50;99.90;;;;;;4936270;29;20860;-68
2022/11/21 07:06:39;;;;;;;3.80;2.08;;;-0.50;99.90;;;;;;4926127;29;20247;-68
2022/11/21 07:09:06;;;;;;;2.40;2.30;;;-0.50;99.90;;;;;;4930899;29;20216;-68
2022/11/21 07:11:35;;;;;;;2.63;2.33;;;-0.50;99.90;;;;;;4928301;29;20233;-68
2022/11/21 07:14:02;;;;;;;3.40;3.30;;;-0.50;99.90;;;;;;4926604;29;20201;-68
2022/11/21 07:16:31;;;;;;;5.05;2.67;;;-0.50;99.90;;;;;;4937095;29;20209;-67
2022/11/21 07:18:59;;;;;;;9.98;3.08;;;-0.50;99.90;;;;;;4937544;29;20208;-68
2022/11/21 07:21:25;;;;;;;2.72;1.98;;;-0.50;99.90;;;;;;4930409;29;20228;-68
2022/11/21 07:23:52;;;;;;;4.90;2.88;;;-0.50;99.90;;;;;;4921983;29;20230;-68
2022/11/21 07:26:19;;;;;;;5.75;1.65;;;-0.40;99.90;;;;;;4923785;29;20221;-68
2022/11/21 07:28:45;;;;;;;5.57;5.18;;;-0.40;99.90;;;;;;4924937;29;20214;-68
2022/11/21 07:31:13;;;;;;;6.15;3.40;;;-0.40;99.90;;;;;;4930200;29;20239;-68
2022/11/21 07:33:41;;;;;;;15.88;4.07;;;-0.40;99.90;;;;;;4928257;29;20302;-68
2022/11/21 07:36:08;;;;;;;11.07;3.60;;;-0.40;99.90;;;;;;4929450;29;20669;-68
2022/11/21 07:38:35;;;;;;;3.38;3.20;;;-0.40;99.90;;;;;;4920688;29;20228;-68
2022/11/21 07:41:02;;;;;;;3.03;2.45;;;-0.30;99.90;;;;;;4936766;29;20224;-68
2022/11/21 07:43:28;;;;;;;0.50;0.50;;;-0.30;99.90;;;;;;4936431;29;20228;-68
2022/11/21 07:45:56;;;;;;;3.17;2.53;;;-0.50;99.90;;;;;;4937044;29;20219;-67
2022/11/21 07:48:24;;;;;;;4.10;3.03;;;-0.50;99.90;;;;;;4934898;29;20206;-68
2022/11/21 07:50:51;;;;;;;6.35;3.83;;;-0.50;99.90;;;;;;4923964;29;20235;-67
2022/11/21 07:53:17;;;;;;;3.05;2.92;;;-0.50;99.90;;;;;;4917124;29;20230;-68
2022/11/21 07:55:44;;;;;;;2.88;1.90;;;-0.50;99.90;;;;;;4928462;29;20219;-68
2022/11/21 07:58:13;;;;;;;5.07;4.68;;;-0.50;99.90;;;;;;4935113;29;20621;-69
2022/11/21 08:00:42;;;;;;;3.17;2.95;;;-0.40;99.90;;;;;;4929953;29;20242;-69
2022/11/21 08:03:10;;;;;;;3.72;2.17;;;-0.30;99.90;;;;;;4928695;29;20280;-69
2022/11/21 08:05:39;;;;;;;3.20;3.05;;;-0.30;99.90;;;;;;4917965;29;20215;-69
2022/11/21 08:08:06;;;;;;;3.25;3.05;;;-0.20;99.90;;;;;;4917230;29;20221;-69
2022/11/21 08:10:33;;;;;;;10.23;2.83;;;-0.10;99.90;;;;;;4917659;29;20760;-69
2022/11/21 08:13:00;;;;;;;15.23;2.85;;;-0.10;99.90;;;;;;4917352;29;20217;-69
2022/11/21 08:15:27;;;;;;;2.70;2.60;;;-0.10;99.90;;;;;;4928999;29;20212;-68
2022/11/21 08:17:53;;;;;;;1.65;1.55;;;-0.10;99.90;;;;;;4922964;29;20217;-68
2022/11/21 08:20:20;;;;;;;3.17;2.95;;;0.00;99.90;;;;;;4917563;29;20237;-68
2022/11/21 08:22:48;;;;;;;9.23;2.20;;;0.00;99.90;;;;;;4928096;29;20229;-68
2022/11/21 08:25:15;;;;;;;10.77;4.97;;;0.00;99.90;;;;;;4928373;29;20213;-68
2022/11/21 08:27:42;;;;;;;5.15;4.00;;;0.10;99.90;;;;;;4931245;29;20220;-68
2022/11/21 08:30:11;;;;;;;2.17;2.10;;;0.10;99.90;;;;;;4932039;29;20213;-68
2022/11/21 08:32:37;;;;;;;6.25;3.13;;;0.00;99.90;;;;;;4916584;29;20600;-68
2022/11/21 08:35:05;;;;;;;14.20;3.38;;;-0.10;99.90;;;;;;4917528;29;20215;-68
2022/11/21 08:37:31;;;;;;;17.38;5.18;;;-0.10;99.90;;;;;;4916878;29;20213;-68
2022/11/21 08:40:01;;;;;;;5.93;2.63;;;-0.10;99.90;;;;;;4917162;29;20303;-68
2022/11/21 08:42:27;;;;;;;2.50;2.50;;;0.00;99.90;;;;;;4925045;29;20600;-68
2022/11/21 08:44:54;;;;;;;5.65;3.58;;;0.00;99.90;;;;;;4929998;29;20210;-68
2022/11/21 08:47:21;;;;;;;2.00;2.00;;;0.00;99.90;;;;;;4917146;29;20599;-68
2022/11/21 08:49:48;;;;;;;4.25;2.83;;;0.00;99.90;;;;;;4927503;29;20309;-68
2022/11/21 08:52:16;;;;;;;2.85;2.65;;;0.00;99.90;;;;;;4928090;29;20257;-68
2022/11/21 08:54:43;;;;;;;7.15;4.60;;;0.00;99.90;;;;;;4916683;29;20315;-68
2022/11/21 08:57:11;;;;;;;4.05;3.72;;;0.00;99.90;;;;;;4930573;29;20212;-67
2022/11/21 08:59:38;;;;;;;5.40;4.43;;;-0.10;99.90;;;;;;4924838;29;20302;-67
2022/11/21 09:02:05;;;;;;;2.42;2.33;;;0.00;99.90;;;;;;4917366;29;20246;-68
2022/11/21 09:04:31;;;;;;;2.65;2.55;;;0.00;99.90;;;;;;4916226;29;20235;-68
2022/11/21 09:06:58;;;;;;;2.85;2.63;;;0.10;99.90;;;;;;4917043;29;20250;-68
2022/11/21 09:09:25;;;;;;;4.88;4.07;;;0.10;99.90;;;;;;4925817;29;20247;-69
2022/11/21 09:11:51;;;;;;;5.20;1.77;;;0.10;99.90;;;;;;4928691;29;20512;-69
2022/11/21 09:19:48;;;;;;;6.30;4.70;;;0.20;99.90;;;;;;4926776;29;20215;-68
2022/11/21 09:22:14;;;;;;;2.80;2.67;;;0.30;99.90;;;;;;4935416;29;20241;-68
2022/11/21 09:24:41;;;;;;;3.25;2.85;;;0.20;99.90;;;;;;4935194;29;20237;-69
2022/11/21 09:27:08;;;;;;;1.98;1.88;;;0.20;99.90;;;;;;4935141;29;20229;-69
2022/11/21 09:29:36;;;;;;;3.30;3.10;;;0.20;99.90;;;;;;4935212;29;20213;-68
2022/11/21 09:32:02;;;;;;;4.70;3.63;;;0.10;99.90;;;;;;4934380;29;20546;-68
2022/11/21 09:34:30;;;;;;;7.47;4.40;;;0.20;99.90;;;;;;4932263;29;20200;-68
2022/11/21 09:36:57;;;;;;;2.97;2.67;;;0.20;99.90;;;;;;4916056;29;20218;-68
2022/11/21 09:39:23;;;;;;;6.07;4.03;;;0.20;99.90;;;;;;4915978;29;20695;-68
2022/11/21 09:42:03;;;;;;;3.58;3.47;;;0.20;99.90;;;;;;4915883;29;20234;-69
2022/11/21 09:44:52;;;;;;;3.67;3.38;;;0.20;99.90;;;;;;4915293;29;20303;-69
2022/11/21 09:47:27;;;;;;;3.67;1.73;;;0.30;99.90;;;;;;4922792;29;20461;-68
2022/11/21 09:49:59;;;;;;;2.13;2.03;;;0.30;99.90;;;;;;4928072;29;20212;-68
2022/11/21 09:52:32;;;;;;;4.50;4.07;;;0.30;99.90;;;;;;4934088;29;20595;-68
2022/11/21 09:55:03;;;;;;;4.68;4.35;;;0.40;99.90;;;;;;4933342;29;20205;-69
2022/11/21 09:57:31;;;;;;;5.53;5.13;;;0.40;99.90;;;;;;4923995;29;20578;-67
2022/11/21 10:00:01;;;;;;;4.03;3.72;;;0.40;99.90;;;;;;4915771;29;20222;-69
2022/11/21 10:02:28;;;;;;;4.53;4.43;;;0.40;99.90;;;;;;4915043;29;20251;-68
2022/11/21 10:04:59;;;;;;;6.15;2.38;;;0.40;99.90;;;;;;4914500;29;20249;-69
2022/11/21 10:07:30;;;;;;;2.53;1.35;;;0.40;99.90;;;;;;4914878;29;20217;-68
2022/11/21 10:10:16;;;;;;;1.30;1.30;;;0.40;99.90;;;;;;4933190;29;20213;-69
2022/11/21 10:12:53;;;;;;;2.78;2.33;;;0.50;99.90;;;;;;4913943;29;20218;-68
2022/11/21 10:15:32;;;;;;;5.07;3.25;;;0.50;99.90;;;;;;4915272;29;20206;-69
2022/11/21 10:18:23;;;;;;;2.05;1.95;;;0.60;99.90;;;;;;4914802;29;20217;-69
2022/11/21 10:20:56;;;;;;;3.25;2.50;;;0.60;99.90;;;;;;4915212;29;20234;-69
2022/11/21 10:23:36;;;;;;;2.00;1.90;;;0.60;99.90;;;;;;4922001;29;20608;-69
2022/11/21 10:26:15;;;;;;;3.83;3.65;;;0.70;99.90;;;;;;4927308;29;20236;-68
2022/11/21 10:28:47;;;;;;;6.53;4.60;;;0.70;99.90;;;;;;4914876;29;20248;-68
2022/11/21 10:31:17;;;;;;;2.40;2.30;;;0.70;99.90;;;;;;4915891;29;20578;-69
2022/11/21 10:33:44;;;;;;;3.00;2.90;;;0.80;99.90;;;;;;4914611;29;20217;-68
2022/11/21 10:36:21;;;;;;;4.13;1.30;;;0.80;99.90;;;;;;4914792;29;20309;-69
2022/11/21 10:38:50;;;;;;;3.35;3.17;;;0.90;99.90;;;;;;4926189;29;20213;-69
2022/11/21 10:41:23;;;;;;;2.40;2.30;;;1.00;99.90;;;;;;4933613;29;20612;-68
2022/11/21 10:46:39;;;;;;;1.85;1.75;;;1.20;99.90;;;;;;4933554;29;20240;-69
2022/11/21 10:49:12;;;;;;;5.30;2.22;;;1.20;99.90;;;;;;4933562;29;20210;-68
2022/11/21 10:51:47;;;;;;;6.93;3.85;;;1.30;99.90;;;;;;4932384;29;20322;-68
2022/11/21 10:54:33;;;;;;;6.13;5.68;;;1.30;99.90;;;;;;4917628;29;20577;-69
2022/11/21 10:57:06;;;;;;;3.47;3.17;;;1.30;99.90;;;;;;4915228;29;20215;-69
2022/11/21 10:59:33;;;;;;;2.25;2.08;;;1.40;99.90;;;;;;4914842;29;20230;-69
2022/11/21 11:02:21;;;;;;;3.08;2.80;;;1.40;99.90;;;;;;4914719;29;20731;-70
2022/11/21 11:04:48;;;;;;;3.88;3.67;;;1.40;99.90;;;;;;4921264;29;20230;-70
2022/11/21 11:07:24;;;;;;;3.08;2.50;;;1.40;99.90;;;;;;4925385;29;20203;-67
2022/11/21 11:09:52;;;;;;;4.88;3.40;;;1.40;99.90;;;;;;4914629;29;20206;-68
2022/11/21 11:13:32;;;;;;;1.80;1.70;;;1.50;99.90;;;;;;4914149;29;20242;-67
2022/11/21 11:15:19;;;;;;;3.25;2.97;;;1.50;99.90;;;;;;4914715;29;20215;-68
2022/11/21 11:17:51;;;;;;;4.93;2.00;;;1.60;99.90;;;;;;4913479;29;20687;-68
2022/11/21 11:20:31;;;;;;;3.55;1.55;;;1.60;99.90;;;;;;4922439;29;20271;-68
2022/11/21 11:22:58;;;;;;;1.35;1.25;;;1.60;99.90;;;;;;4933484;29;20202;-68
2022/11/21 11:25:24;;;;;;;0.93;0.93;;;1.60;99.90;;;;;;4936850;29;20237;-69
2022/11/21 11:27:51;;;;;;;0.85;0.85;;;1.70;99.90;;;;;;4936443;29;20590;-68
2022/11/21 11:30:20;;;;;;;3.63;3.13;;;1.70;99.90;;;;;;4936552;29;20650;-68
2022/11/21 11:32:48;;;;;;;2.63;2.38;;;1.70;99.90;;;;;;4934524;29;20649;-68
2022/11/21 11:35:22;;;;;;;3.92;3.63;;;1.80;99.90;;;;;;4936227;29;20210;-68
2022/11/21 11:37:59;;;;;;;7.60;2.72;;;1.80;99.90;;;;;;4917133;29;20242;-68
2022/11/21 11:40:31;;;;;;;3.55;2.85;;;1.80;99.90;;;;;;4925178;29;20277;-68
2022/11/21 11:49:02;;;;;;;3.05;2.78;;;1.90;99.90;;;;;;4924248;29;20214;-68
2022/11/21 11:51:34;;;;;;;6.32;2.70;;;1.90;99.90;;;;;;4933797;29;20229;-68
2022/11/21 11:54:06;;;;;;;2.50;1.95;;;2.00;99.90;;;;;;4935274;29;20210;-68
2022/11/21 11:56:37;;;;;;;3.05;2.65;;;2.00;99.90;;;;;;4934993;29;20214;-69
2022/11/21 11:59:11;;;;;;;3.25;2.95;;;2.00;99.90;;;;;;4929408;29;20199;-69
2022/11/21 12:01:41;;;;;;;2.60;2.30;;;2.10;99.90;;;;;;4916850;29;20241;-68
2022/11/21 12:04:15;;;;;;;5.00;2.25;;;2.10;99.90;;;;;;4916126;29;20530;-69
2022/11/21 12:06:48;;;;;;;5.90;4.13;;;2.10;99.90;;;;;;4917174;29;20211;-69
2022/11/21 12:09:23;;;;;;;2.58;2.45;;;2.20;99.90;;;;;;4917463;29;20218;-69
2022/11/21 12:12:07;;;;;;;2.30;2.17;;;2.20;99.90;;;;;;4933289;29;20275;-68
2022/11/21 12:17:35;;;;;;;3.67;3.58;;;2.30;99.90;;;;;;4917283;29;20616;-69
2022/11/21 12:20:08;;;;;;;1.58;1.50;;;2.30;99.90;;;;;;4917410;29;20212;-69
2022/11/21 12:22:35;;;;;;;0.75;0.75;;;2.30;99.90;;;;;;4916014;29;20246;-69
2022/11/21 12:25:02;;;;;;;1.85;1.42;;;2.30;99.90;;;;;;4920772;29;20646;-68
2022/11/21 12:27:31;;;;;;;3.30;3.00;;;2.40;99.90;;;;;;4933354;29;20213;-69
2022/11/21 12:30:23;;;;;;;4.60;1.58;;;2.40;99.90;;;;;;4916825;29;20215;-68
2022/11/21 12:32:56;;;;;;;2.45;1.95;;;2.40;99.90;;;;;;4915633;29;20218;-69
2022/11/21 12:35:49;;;;;;;2.05;1.38;;;2.40;99.90;;;;;;4915741;29;20265;-69
2022/11/21 12:38:29;;;;;;;3.25;2.45;;;2.50;99.90;;;;;;4915657;29;20218;-69
2022/11/21 12:42:48;;;;;;;2.03;1.92;;;2.50;99.90;;;;;;4928445;29;20242;-69
2022/11/21 12:44:04;;;;;;;0.82;0.70;;;2.50;99.90;;;;;;4934759;29;20777;-69
2022/11/21 12:46:39;;;;;;;0.90;0.90;;;2.60;99.90;;;;;;4935121;29;20206;-68
2022/11/21 12:55:29;;;;;;;3.40;2.13;;;2.60;99.90;;;;;;4897547;29;20199;-69
2022/11/21 12:58:18;;;;;;;0.60;0.60;;;2.60;99.90;;;;;;4902651;29;20217;-69
2022/11/21 13:00:59;;;;;;;7.32;1.63;;;2.70;99.90;;;;;;4909878;29;20258;-69
2022/11/21 13:03:47;;;;;;;4.60;2.05;;;2.70;99.90;;;;;;4915783;29;20211;-69
2022/11/21 13:06:19;;;;;;;2.33;2.05;;;2.70;99.90;;;;;;4915915;29;20230;-68
2022/11/21 13:08:50;;;;;;;1.65;1.55;;;2.70;99.90;;;;;;4916127;29;20219;-69
2022/11/21 13:14:22;;;;;;;2.13;2.03;;;2.70;99.90;;;;;;4918391;29;20225;-68
2022/11/21 13:16:59;;;;;;;0.80;0.80;;;2.70;99.90;;;;;;4916467;29;20545;-68
2022/11/21 13:19:35;;;;;;;0.90;0.90;;;2.70;99.90;;;;;;4924829;29;20221;-68
2022/11/21 13:22:02;;;;;;;1.20;1.20;;;2.70;99.90;;;;;;4915458;29;20230;-69
2022/11/21 13:24:58;;;;;;;0.75;0.75;;;2.80;99.90;;;;;;4920856;29;20237;-69
2022/11/21 13:27:31;;;;;;;2.70;1.45;;;2.80;99.90;;;;;;4926714;29;20217;-69
2022/11/21 13:30:20;;;;;;;1.00;0.95;;;2.70;99.90;;;;;;4934937;29;20212;-69
2022/11/21 13:32:48;;;;;;;2.95;1.60;;;2.70;99.90;;;;;;4933408;29;20711;-69
2022/11/21 13:36:03;;;;;;;2.10;1.48;;;2.70;99.90;;;;;;4934450;29;20213;-69
2022/11/21 13:38:31;;;;;;;0.82;0.82;;;2.70;99.90;;;;;;4933459;29;20226;-69
2022/11/21 13:43:43;;;;;;;5.20;1.27;;;2.70;99.90;;;;;;4933995;29;20217;-69
2022/11/21 13:46:10;;;;;;;0.55;0.55;;;2.70;99.90;;;;;;4934636;29;20256;-69
2022/11/21 13:49:00;;;;;;;4.47;1.50;;;2.70;99.90;;;;;;4934306;29;20205;-69
2022/11/21 13:51:47;;;;;;;1.38;1.38;;;2.60;99.90;;;;;;4933869;29;20651;-69
2022/11/21 13:54:40;;;;;;;2.25;2.10;;;2.60;99.90;;;;;;4932972;29;20235;-69
2022/11/21 13:57:35;;;;;;;0.88;0.80;;;2.60;99.90;;;;;;4929995;29;20202;-69
2022/11/21 14:00:49;;;;;;;2.15;0.93;;;2.60;99.90;;;;;;4929513;29;20209;-69
2022/11/21 14:03:49;;;;;;;1.13;1.13;;;2.60;99.90;;;;;;4872049;29;20565;-69
2022/11/21 14:06:32;;;;;;;0.38;0.38;;;2.60;99.90;;;;;;4868011;29;20233;-70
2022/11/21 14:09:16;;;;;;;1.88;1.67;;;2.50;99.90;;;;;;4913063;29;20221;-69
2022/11/21 14:11:48;;;;;;;1.27;0.95;;;2.60;99.90;;;;;;4914816;29;20239;-69
2022/11/21 14:14:27;;;;;;;2.03;1.77;;;2.50;99.90;;;;;;4914607;29;20244;-69
2022/11/21 14:17:04;;;;;;;2.17;0.93;;;2.50;99.90;;;;;;4914697;29;20222;-68
2022/11/21 14:19:33;;;;;;;4.78;2.08;;;2.50;99.90;;;;;;4920110;29;20230;-69
2022/11/21 14:22:01;;;;;;;1.80;1.70;;;2.40;99.90;;;;;;4926998;29;20235;-69
2022/11/21 14:24:28;;;;;;;1.10;0.85;;;2.40;99.90;;;;;;4913965;29;20238;-69
2022/11/21 14:26:55;;;;;;;0.63;0.63;;;2.40;99.90;;;;;;4914508;29;20214;-68
2022/11/21 14:29:28;;;;;;;1.08;1.00;;;2.30;99.90;;;;;;4914684;29;20229;-70
2022/11/21 14:31:55;;;;;;;1.23;1.23;;;2.30;99.90;;;;;;4914492;29;20613;-69
2022/11/21 14:34:27;;;;;;;3.42;3.40;;;2.20;99.90;;;;;;4928715;29;20202;-69
2022/11/21 14:36:54;;;;;;;0.80;0.80;;;2.20;99.90;;;;;;4920122;29;20592;-69
2022/11/21 14:39:25;;;;;;;1.95;1.85;;;2.20;99.90;;;;;;4914247;29;20213;-69
2022/11/21 14:41:54;;;;;;;0.93;0.93;;;2.20;99.90;;;;;;4914034;29;20236;-69
2022/11/21 14:44:22;;;;;;;4.85;3.83;;;2.10;99.90;;;;;;4913836;29;20218;-70
2022/11/21 14:46:51;;;;;;;3.72;1.98;;;2.10;99.90;;;;;;4917513;29;20591;-68
2022/11/21 14:49:24;;;;;;;1.52;0.88;;;2.00;99.90;;;;;;4922151;29;20210;-68
2022/11/21 14:51:53;;;;;;;2.75;2.60;;;2.00;99.90;;;;;;4933117;29;20230;-68
2022/11/21 14:54:22;;;;;;;2.83;2.60;;;2.00;99.90;;;;;;4932698;29;20222;-68
2022/11/21 14:56:56;;;;;;;1.50;1.40;;;2.00;99.90;;;;;;4933088;29;20225;-68
2022/11/21 14:59:25;;;;;;;2.03;1.40;;;1.90;99.90;;;;;;4936967;29;20216;-69
2022/11/21 15:01:59;;;;;;;1.70;1.70;;;1.80;99.90;;;;;;4935956;29;20714;-68
2022/11/21 15:04:29;;;;;;;1.92;1.83;;;1.80;99.90;;;;;;4933403;29;20214;-68
2022/11/21 15:06:56;;;;;;;1.42;1.00;;;1.80;99.90;;;;;;4931108;29;20578;-68
2022/11/21 15:09:23;;;;;;;2.88;2.60;;;1.70;99.90;;;;;;4936914;29;20309;-69
2022/11/21 15:11:52;;;;;;;6.85;1.52;;;1.70;99.90;;;;;;4936580;29;20311;-68
2022/11/21 15:14:25;;;;;;;1.48;1.38;;;1.70;99.90;;;;;;4936227;29;20214;-69
2022/11/21 15:16:54;;;;;;;1.60;1.50;;;1.60;99.90;;;;;;4931893;29;20659;-69
2022/11/21 15:19:24;;;;;;;0.98;0.98;;;1.60;99.90;;;;;;4927130;29;20210;-69
2022/11/21 15:21:53;;;;;;;5.50;3.20;;;1.50;99.90;;;;;;4917878;29;20591;-68
2022/11/21 15:24:29;;;;;;;0.40;0.40;;;1.50;99.90;;;;;;4917369;29;20214;-69
2022/11/21 15:26:56;;;;;;;2.05;1.90;;;1.40;99.90;;;;;;4918020;29;20597;-69
2022/11/21 15:29:23;;;;;;;0.85;0.85;;;1.40;99.90;;;;;;4918565;29;20221;-69
2022/11/21 15:32:05;;;;;;;0.30;0.30;;;1.30;99.90;;;;;;4926123;29;20225;-68
2022/11/21 15:34:33;;;;;;;0.82;0.82;;;1.30;99.90;;;;;;4925441;29;20562;-69
2022/11/21 15:37:07;;;;;;;6.95;3.55;;;1.20;99.90;;;;;;4916895;29;20678;-69
2022/11/21 15:39:36;;;;;;;2.67;1.73;;;1.20;99.90;;;;;;4917702;29;20211;-69
2022/11/21 15:42:28;;;;;;;1.80;1.67;;;1.20;99.90;;;;;;4917257;29;20285;-69
2022/11/21 15:44:59;;;;;;;0.80;0.80;;;1.20;99.90;;;;;;4921120;29;20229;-69
2022/11/21 15:47:25;;;;;;;1.15;1.15;;;1.10;99.90;;;;;;4934816;29;20216;-70
2022/11/21 15:49:54;;;;;;;0.68;0.68;;;1.00;99.90;;;;;;4917211;29;20221;-69
2022/11/21 15:52:21;;;;;;;1.25;1.20;;;1.00;99.90;;;;;;4916831;29;20233;-69
2022/11/21 15:54:48;;;;;;;2.28;2.17;;;1.00;99.90;;;;;;4916959;29;20222;-69
2022/11/21 15:57:15;;;;;;;3.05;2.95;;;1.00;99.90;;;;;;4917372;29;20582;-70
2022/11/21 15:59:42;;;;;;;1.52;1.52;;;0.90;99.90;;;;;;4927620;29;20202;-69
2022/11/21 16:02:12;;;;;;;2.47;2.38;;;0.80;99.90;;;;;;4928219;29;20553;-69
2022/11/21 16:04:39;;;;;;;1.05;1.05;;;0.80;99.90;;;;;;4935276;29;20240;-69
2022/11/21 16:07:07;;;;;;;2.30;2.15;;;0.80;99.90;;;;;;4928212;29;20210;-68
2022/11/21 16:09:34;;;;;;;1.30;1.30;;;0.70;99.90;;;;;;4924571;29;20601;-69
2022/11/21 16:12:01;;;;;;;4.03;3.78;;;0.70;99.90;;;;;;4917309;29;20234;-68
2022/11/21 16:14:28;;;;;;;4.22;4.15;;;0.60;99.90;;;;;;4916567;29;20225;-69
2022/11/21 16:16:55;;;;;;;6.72;4.85;;;0.60;99.90;;;;;;4917393;29;20556;-68
2022/11/21 16:19:22;;;;;;;4.10;2.97;;;0.50;99.90;;;;;;4917830;29;20226;-68
2022/11/21 16:21:48;;;;;;;0.10;0.10;;;0.50;99.90;;;;;;4935618;29;20705;-69
2022/11/21 16:24:17;;;;;;;0.95;0.95;;;0.40;99.90;;;;;;4920024;29;20209;-68
2022/11/21 16:26:43;;;;;;;2.95;2.83;;;0.30;99.90;;;;;;4917197;29;20240;-69
2022/11/21 16:29:11;;;;;;;5.75;1.10;;;0.30;99.90;;;;;;4917627;29;20213;-68
2022/11/21 16:31:38;;;;;;;4.35;4.15;;;0.20;99.90;;;;;;4917362;29;20237;-69
2022/11/21 16:34:04;;;;;;;4.28;4.07;;;0.10;99.90;;;;;;4917591;29;20210;-69
2022/11/21 16:36:32;;;;;;;19.50;3.97;;;0.10;99.90;;;;;;4939079;29;20206;-69
2022/11/21 16:39:00;;;;;;;9.57;5.47;;;0.10;99.90;;;;;;4929792;29;20235;-69
2022/11/21 16:41:28;;;;;;;2.03;1.92;;;0.00;99.90;;;;;;4920989;29;20232;-69
2022/11/21 16:43:55;;;;;;;5.28;3.85;;;-0.10;99.90;;;;;;4920342;29;20221;-69
2022/11/21 16:46:24;;;;;;;3.55;3.28;;;-0.10;99.90;;;;;;4918428;29;20728;-69
2022/11/21 16:48:59;;;;;;;1.67;1.58;;;-0.10;99.90;;;;;;4930990;29;20231;-69
2022/11/21 16:51:25;;;;;;;4.72;4.35;;;-0.20;99.90;;;;;;4930752;29;20310;-69
2022/11/21 16:53:53;;;;;;;8.45;4.65;;;-0.20;99.90;;;;;;4923077;29;20308;-69
2022/11/21 16:56:20;;;;;;;9.07;8.25;;;-0.30;99.90;;;;;;4917759;29;20219;-71
2022/11/21 16:58:48;;;;;;;8.07;6.65;;;-0.30;99.90;;;;;;4916697;29;20591;-68
2022/11/21 17:01:17;;;;;;;8.05;7.28;;;-0.30;99.90;;;;;;4916002;29;20245;-67
2022/11/21 17:03:44;;;;;;;27.08;5.90;;;-0.30;99.90;;;;;;4915245;29;20221;-67
2022/11/21 17:06:12;;;;;;;2.92;2.80;;;-0.20;99.90;;;;;;4931671;29;20234;-67
2022/11/21 17:08:39;;;;;;;5.90;4.13;;;-0.20;99.90;;;;;;4916227;29;20216;-68
2022/11/21 17:11:13;;;;;;;12.70;6.72;;;-0.20;99.90;;;;;;4915813;29;20739;-68
2022/11/21 17:16:14;;;;;;;12.30;3.63;;;-0.10;99.90;;;;;;4898220;29;20478;-66
2022/11/21 17:18:41;;;;;;;4.05;3.58;;;-0.10;99.90;;;;;;4890312;29;20209;-67
2022/11/21 17:21:09;;;;;;;6.60;5.90;;;-0.10;99.90;;;;;;4896591;29;20261;-69
2022/11/21 17:23:38;;;;;;;6.95;5.55;;;-0.10;99.90;;;;;;4897514;29;20637;-66
2022/11/21 17:26:06;;;;;;;3.42;1.70;;;-0.10;99.90;;;;;;4878965;29;20628;-67
2022/11/21 17:28:33;;;;;;;5.15;3.65;;;-0.10;99.90;;;;;;4878671;29;20225;-66
2022/11/21 17:31:00;;;;;;;3.67;3.58;;;-0.10;99.90;;;;;;4878392;29;20293;-67
2022/11/21 17:33:29;;;;;;;5.00;4.60;;;-0.10;99.90;;;;;;4877549;29;20212;-67
2022/11/21 17:35:56;;;;;;;8.70;8.00;;;-0.10;99.90;;;;;;4878178;29;20231;-70
2022/11/21 17:38:23;;;;;;;3.03;2.15;;;-0.10;99.90;;;;;;4879425;29;20213;-65
2022/11/21 17:40:59;;;;;;;3.65;3.45;;;-0.10;99.90;;;;;;4878790;29;20283;-66
2022/11/21 17:43:26;;;;;;;11.50;5.63;;;-0.10;99.90;;;;;;4877065;29;20226;-67
2022/11/21 17:45:57;;;;;;;3.55;3.33;;;-0.10;99.90;;;;;;4877728;29;20293;-67
2022/11/21 17:48:24;;;;;;;8.60;5.47;;;-0.10;99.90;;;;;;4877226;29;20290;-67
2022/11/21 17:50:59;;;;;;;10.30;3.67;;;-0.10;99.90;;;;;;4877657;29;20699;-67
2022/11/21 17:53:26;;;;;;;10.45;4.60;;;-0.10;99.90;;;;;;4877346;29;20260;-67
2022/11/21 17:55:57;;;;;;;3.97;3.97;;;-0.10;99.90;;;;;;4877520;29;20262;-69
2022/11/21 17:58:24;;;;;;;5.10;4.78;;;-0.10;99.90;;;;;;4876439;29;20282;-66
2022/11/21 18:00:54;;;;;;;12.27;6.63;;;-0.10;99.90;;;;;;4877575;29;20210;-67
2022/11/21 18:03:23;;;;;;;3.83;3.60;;;-0.10;99.90;;;;;;4876639;29;20224;-66
2022/11/21 18:06:01;;;;;;;3.83;2.40;;;-0.10;99.90;;;;;;4875283;29;20553;-66
2022/11/21 18:08:30;;;;;;;8.68;4.88;;;-0.10;99.90;;;;;;4875756;29;20269;-66
2022/11/21 18:10:57;;;;;;;2.38;1.92;;;-0.20;99.90;;;;;;4876889;29;20287;-66
2022/11/21 18:13:23;;;;;;;3.45;3.35;;;-0.20;99.90;;;;;;4876573;29;20554;-66
2022/11/21 18:15:50;;;;;;;3.63;3.40;;;-0.30;99.90;;;;;;4877320;29;20234;-65
2022/11/21 18:18:17;;;;;;;3.78;3.45;;;-0.30;99.90;;;;;;4876967;29;20894;-66
2022/11/21 18:20:44;;;;;;;6.75;1.85;;;-0.30;99.90;;;;;;4876584;29;20209;-67
2022/11/21 18:23:12;;;;;;;16.90;6.18;;;-0.40;99.90;;;;;;4874044;29;20217;-67
2022/11/21 18:25:39;;;;;;;7.45;3.53;;;-0.40;99.90;;;;;;4876938;29;20257;-65
2022/11/21 18:28:06;;;;;;;3.90;3.67;;;-0.50;99.90;;;;;;4877027;29;20230;-67
2022/11/21 18:30:32;;;;;;;5.10;3.83;;;-0.50;99.90;;;;;;4877483;29;20216;-67
2022/11/21 18:32:59;;;;;;;4.32;1.67;;;-0.50;99.90;;;;;;4875312;29;20218;-67
2022/11/21 18:35:26;;;;;;;4.00;2.50;;;-0.50;99.90;;;;;;4876345;29;20551;-67
2022/11/21 18:37:54;;;;;;;3.67;3.58;;;-0.50;99.90;;;;;;4875213;29;20209;-66
2022/11/21 18:40:22;;;;;;;5.20;4.47;;;-0.60;99.90;;;;;;4874443;29;20274;-66
2022/11/21 18:42:49;;;;;;;4.43;4.13;;;-0.60;99.90;;;;;;4876681;29;20238;-67
2022/11/21 18:45:15;;;;;;;4.78;4.35;;;-0.60;99.90;;;;;;4877138;29;20241;-66
2022/11/21 18:47:42;;;;;;;2.33;2.33;;;-0.60;99.90;;;;;;4876511;29;20218;-66
2022/11/21 18:50:10;;;;;;;1.88;1.88;;;-0.60;99.90;;;;;;4876522;29;20308;-67